aviador You're here:

PAMK Decoded Metar

ST MICHAEL in AK, USA
Report Time2017-08-06 07:56:00
UTC Time2017-08-22 15:05:09
Flight Rules Old
Wind020° at 05 kt
W.Decomp.*RWY 02: 4.8 kt HW 1.5 kt LCW
W.Rank020° ranks 7
Current wind is below 020° avg. (10.6)
Visibility9999 m
Phenomena:N/A
Clouds:N/A
Expected CloudBase > 1,600 ft AGL from Temp-Dew spread
CeilingNone
Temp18°C (ISA +3)
Dew Point14°C (78% RH)
AAT17.5°C
QNH1018 hPa
Density Alt512 ft
Elevation92 ft
Report Wrong Elevation
Raw Report
PAMK 060756Z AUTO 02005KT 10SM CLR 18/14 A3006 RMK AO2 SLP182
T01780139 $=

Extra information for PAMK:More info

Metar Taf Metar & Taf Last 4 Metars F.Rules Stats Wind Profile Meteogram Temp Stats Airport Information Weather charts Add Link Nearby VenuesMetar ALERT Operation Metar Decoded Social comments

AIRNAV info for PAMK